Time;durP1;ratioP1;P1;durP2;ratioP2;P2;SDS_P1;SDS_P2;PMS_P1;PMS_P2;Temp;Humidity;BMP_temperature;BMP_pressure;BME280_temperature;BME280_humidity;BME280_pressure;Samples;Min_cycle;Max_cycle;Signal;HPM_P1;HPM_P2
2021/11/25 00:00:41;;;;;;;143.10;56.30;;;4.90;99.90;;;;;;5019172;23;20493;-78
2021/11/25 00:02:42;;;;;;;148.63;55.05;;;5.00;99.90;;;;;;5019297;23;20052;-78
2021/11/25 00:04:43;;;;;;;149.45;55.30;;;5.00;99.90;;;;;;5018730;23;20011;-79
2021/11/25 00:06:44;;;;;;;144.98;53.53;;;5.00;99.90;;;;;;5017259;23;20038;-80
2021/11/25 00:08:44;;;;;;;150.57;58.67;;;5.00;99.90;;;;;;5017309;23;20015;-77
2021/11/25 00:10:46;;;;;;;137.57;54.55;;;4.90;99.90;;;;;;5017511;23;20471;-78
2021/11/25 00:12:47;;;;;;;130.35;53.97;;;4.90;99.90;;;;;;5018911;23;20481;-78
2021/11/25 00:14:48;;;;;;;146.90;56.58;;;4.80;99.90;;;;;;5018790;23;20438;-78
2021/11/25 00:16:48;;;;;;;155.13;53.65;;;4.90;99.90;;;;;;5016930;23;20046;-78
2021/11/25 00:18:49;;;;;;;135.13;54.78;;;4.80;99.90;;;;;;5016968;23;20015;-78
2021/11/25 00:20:50;;;;;;;139.13;52.08;;;4.90;99.90;;;;;;5018570;23;20082;-78
2021/11/25 00:22:51;;;;;;;132.07;55.03;;;4.90;99.90;;;;;;5018945;23;20018;-78
2021/11/25 00:24:51;;;;;;;125.70;51.80;;;4.80;99.90;;;;;;5018742;23;20015;-78
2021/11/25 00:26:52;;;;;;;137.77;53.40;;;4.80;99.90;;;;;;5018891;23;20367;-77
2021/11/25 00:28:53;;;;;;;134.80;53.92;;;4.80;99.90;;;;;;5018233;23;20039;-78
2021/11/25 00:30:54;;;;;;;135.30;57.38;;;4.90;99.90;;;;;;5019211;23;20030;-78
2021/11/25 00:32:54;;;;;;;124.70;51.15;;;4.80;99.90;;;;;;5016217;23;20003;-79
2021/11/25 00:34:55;;;;;;;122.03;51.88;;;4.80;99.90;;;;;;5019284;23;20511;-79
2021/11/25 00:36:56;;;;;;;125.20;51.67;;;4.70;99.90;;;;;;5016760;23;20061;-78
2021/11/25 00:38:56;;;;;;;123.38;55.35;;;4.60;99.90;;;;;;5016914;23;20011;-77
2021/11/25 00:40:57;;;;;;;118.47;52.83;;;4.50;99.90;;;;;;5016315;23;20087;-77
2021/11/25 00:42:57;;;;;;;114.90;49.40;;;4.50;99.90;;;;;;5018346;23;20015;-78
2021/11/25 00:44:58;;;;;;;120.03;49.67;;;4.50;99.90;;;;;;5018027;23;20018;-78
2021/11/25 00:46:59;;;;;;;121.22;48.22;;;4.40;99.90;;;;;;5018535;23;20019;-77
2021/11/25 00:48:59;;;;;;;130.10;52.17;;;4.30;99.90;;;;;;5018512;23;20121;-78
2021/11/25 00:51:00;;;;;;;123.32;50.80;;;4.30;99.90;;;;;;5019025;23;20339;-78
2021/11/25 00:53:01;;;;;;;118.03;49.60;;;4.30;99.90;;;;;;5018429;23;20021;-79
2021/11/25 00:55:03;;;;;;;124.70;51.17;;;4.30;99.90;;;;;;5016989;23;20006;-78
2021/11/25 00:57:04;;;;;;;130.95;52.33;;;4.30;99.90;;;;;;5019840;23;20015;-78
2021/11/25 00:59:05;;;;;;;145.85;50.92;;;4.40;99.90;;;;;;5017872;23;20086;-78
2021/11/25 01:01:05;;;;;;;138.77;50.97;;;4.40;99.90;;;;;;5019177;23;20007;-78
2021/11/25 01:03:06;;;;;;;156.00;53.70;;;4.50;99.90;;;;;;5019757;23;20026;-79
2021/11/25 01:05:08;;;;;;;141.70;51.38;;;4.50;99.90;;;;;;5015456;23;20074;-78
2021/11/25 01:07:08;;;;;;;147.02;51.92;;;4.40;99.90;;;;;;5019325;23;20018;-78
2021/11/25 01:09:09;;;;;;;143.10;51.78;;;4.40;99.90;;;;;;5017512;23;20022;-78
2021/11/25 01:11:10;;;;;;;150.05;54.35;;;4.40;99.90;;;;;;5017560;23;20664;-78
2021/11/25 01:13:11;;;;;;;137.07;52.70;;;4.40;99.90;;;;;;5018379;23;20010;-78
2021/11/25 01:15:13;;;;;;;157.13;55.17;;;4.40;99.90;;;;;;5016560;23;20022;-77
2021/11/25 01:17:15;;;;;;;149.57;52.60;;;4.50;99.90;;;;;;5017169;23;20046;-76
2021/11/25 01:19:15;;;;;;;143.02;52.33;;;4.50;99.90;;;;;;5018246;23;20015;-76
2021/11/25 01:21:17;;;;;;;152.82;51.95;;;4.50;99.90;;;;;;5016654;23;20465;-78
2021/11/25 01:23:24;;;;;;;130.80;52.22;;;4.50;99.90;;;;;;5015479;23;20103;-77
2021/11/25 01:25:25;;;;;;;142.13;53.75;;;4.50;99.90;;;;;;5019069;23;20428;-78
2021/11/25 01:27:25;;;;;;;129.27;54.45;;;4.60;99.90;;;;;;5016049;23;20090;-76
2021/11/25 01:29:26;;;;;;;132.60;54.80;;;4.60;99.90;;;;;;5016900;23;20015;-78
2021/11/25 01:31:27;;;;;;;123.32;52.28;;;4.60;99.90;;;;;;5017380;23;20447;-77
2021/11/25 01:33:31;;;;;;;129.48;54.33;;;4.60;99.90;;;;;;5016616;23;20443;-78
2021/11/25 01:35:31;;;;;;;121.95;52.03;;;4.60;99.90;;;;;;5017927;23;20011;-78
2021/11/25 01:37:33;;;;;;;115.32;51.10;;;4.60;99.90;;;;;;5018518;23;20269;-78
2021/11/25 01:39:34;;;;;;;121.28;54.05;;;4.60;99.90;;;;;;5016275;23;20059;-77
2021/11/25 01:41:34;;;;;;;110.18;50.67;;;4.60;99.90;;;;;;5018393;23;20063;-78
2021/11/25 01:43:38;;;;;;;115.78;51.50;;;4.60;99.90;;;;;;5018846;23;20003;-79
2021/11/25 01:45:39;;;;;;;109.22;52.60;;;4.50;99.90;;;;;;5017010;23;20067;-76
2021/11/25 01:47:46;;;;;;;99.18;48.10;;;4.60;99.90;;;;;;5016198;23;20443;-77
2021/11/25 01:49:46;;;;;;;106.43;48.67;;;4.50;99.90;;;;;;5018275;23;20015;-78
2021/11/25 01:51:47;;;;;;;104.43;52.38;;;4.60;99.90;;;;;;5016871;23;20037;-78
2021/11/25 01:53:47;;;;;;;110.82;53.03;;;4.60;99.90;;;;;;5017735;23;20007;-78
2021/11/25 01:55:48;;;;;;;106.53;51.92;;;4.60;99.90;;;;;;5018207;23;20007;-77
2021/11/25 01:57:51;;;;;;;104.70;50.53;;;4.60;99.90;;;;;;5017411;23;20566;-77
2021/11/25 01:59:53;;;;;;;101.82;49.63;;;4.50;99.90;;;;;;5017836;23;20013;-77
2021/11/25 02:01:53;;;;;;;94.35;49.35;;;4.50;99.90;;;;;;5017774;23;20082;-79
2021/11/25 02:03:54;;;;;;;105.30;50.08;;;4.60;99.90;;;;;;5018152;23;20011;-78
2021/11/25 02:05:55;;;;;;;104.72;48.47;;;4.60;99.90;;;;;;5017953;23;20535;-79
2021/11/25 02:07:56;;;;;;;96.00;50.38;;;4.60;99.90;;;;;;5017391;23;20093;-78
2021/11/25 02:09:57;;;;;;;102.45;49.70;;;4.70;99.90;;;;;;5018106;23;20376;-76
2021/11/25 02:11:58;;;;;;;95.35;47.58;;;4.60;99.90;;;;;;5017378;23;20015;-79
2021/11/25 02:13:58;;;;;;;84.95;47.05;;;4.60;99.90;;;;;;5017819;23;20416;-78
2021/11/25 02:16:00;;;;;;;92.22;47.25;;;4.50;99.90;;;;;;5016042;23;20089;-77
2021/11/25 02:18:03;;;;;;;94.70;48.25;;;4.60;99.90;;;;;;5017808;23;20455;-79
2021/11/25 02:20:07;;;;;;;87.25;47.47;;;4.50;99.90;;;;;;5015745;23;20019;-79
2021/11/25 02:22:08;;;;;;;82.07;47.00;;;4.50;99.90;;;;;;5017038;23;20027;-78
2021/11/25 02:24:09;;;;;;;82.28;42.47;;;4.50;99.90;;;;;;5015370;23;20770;-78
2021/11/25 02:26:10;;;;;;;78.32;43.08;;;4.40;99.90;;;;;;5016963;23;20011;-77
2021/11/25 02:28:11;;;;;;;76.50;41.80;;;4.50;99.90;;;;;;5014369;23;20007;-77
2021/11/25 02:30:13;;;;;;;70.28;41.88;;;4.50;99.90;;;;;;5016234;23;20078;-78
2021/11/25 02:32:33;;;;;;;68.82;40.45;;;4.50;99.90;;;;;;5016180;23;20082;-78
2021/11/25 02:34:34;;;;;;;70.00;38.67;;;4.50;99.90;;;;;;5016605;23;20007;-78
2021/11/25 02:36:35;;;;;;;64.75;39.50;;;4.60;99.90;;;;;;5016479;23;20451;-78
2021/11/25 02:38:36;;;;;;;61.15;38.35;;;4.70;99.90;;;;;;5016291;23;20011;-78
2021/11/25 02:40:46;;;;;;;68.93;37.88;;;4.60;99.90;;;;;;5016675;23;20335;-77
2021/11/25 02:42:50;;;;;;;57.50;35.42;;;4.70;99.90;;;;;;5014094;23;20409;-77
2021/11/25 02:44:51;;;;;;;63.70;36.47;;;4.70;99.90;;;;;;5017543;23;20007;-77
2021/11/25 02:46:51;;;;;;;61.72;37.53;;;4.70;99.90;;;;;;5017342;23;20147;-76
2021/11/25 02:48:55;;;;;;;61.78;37.47;;;4.70;99.90;;;;;;5017782;23;20035;-76
2021/11/25 02:50:56;;;;;;;;;;;4.70;99.90;;;;;;5017795;23;20015;-77
2021/11/25 02:52:56;;;;;;;64.53;38.30;;;4.80;99.90;;;;;;5017058;23;19910;-77
2021/11/25 02:54:57;;;;;;;65.28;37.50;;;4.80;99.90;;;;;;5017950;23;20349;-79
2021/11/25 02:56:58;;;;;;;68.15;39.78;;;4.80;99.90;;;;;;5015388;23;20018;-78
2021/11/25 02:58:59;;;;;;;68.68;41.95;;;4.70;99.90;;;;;;5017578;23;20452;-78
2021/11/25 03:01:08;;;;;;;59.78;38.10;;;4.70;99.90;;;;;;5015792;23;20495;-78
2021/11/25 03:03:16;;;;;;;61.28;38.00;;;4.70;99.90;;;;;;5016159;23;20850;-78
2021/11/25 03:05:16;;;;;;;71.15;42.25;;;4.70;99.90;;;;;;5017783;23;20027;-77
2021/11/25 03:07:17;;;;;;;72.50;42.95;;;4.80;99.90;;;;;;5013255;23;20447;-76
2021/11/25 03:09:19;;;;;;;64.03;39.88;;;4.80;99.90;;;;;;5016732;23;20007;-77
2021/11/25 03:11:22;;;;;;;69.18;42.13;;;4.80;99.90;;;;;;5015943;23;20351;-77
2021/11/25 03:13:24;;;;;;;69.18;41.35;;;4.70;99.90;;;;;;5016101;23;20017;-77
2021/11/25 03:15:33;;;;;;;71.15;41.72;;;4.70;99.90;;;;;;5016433;23;20014;-77
2021/11/25 03:17:37;;;;;;;69.30;43.30;;;4.70;99.90;;;;;;5016102;23;20025;-76
2021/11/25 03:19:39;;;;;;;66.30;42.60;;;4.70;99.90;;;;;;5016918;23;20019;-78
2021/11/25 03:21:40;;;;;;;64.55;40.67;;;4.70;99.90;;;;;;5016212;23;20065;-77
2021/11/25 03:23:42;;;;;;;66.53;39.22;;;4.70;99.90;;;;;;5016704;23;20357;-77
2021/11/25 03:25:44;;;;;;;70.20;42.45;;;4.70;99.90;;;;;;5017514;23;20472;-78
2021/11/25 03:27:44;;;;;;;76.70;44.53;;;4.70;99.90;;;;;;5017023;23;20633;-77
2021/11/25 03:29:45;;;;;;;75.47;45.08;;;4.60;99.90;;;;;;5017379;23;20022;-77
2021/11/25 03:31:45;;;;;;;70.78;44.70;;;4.60;99.90;;;;;;5017010;23;20026;-77
2021/11/25 03:33:46;;;;;;;73.93;43.90;;;4.60;99.90;;;;;;5017133;23;20320;-78
2021/11/25 03:35:47;;;;;;;78.38;46.42;;;4.60;99.90;;;;;;5017196;23;20018;-78
2021/11/25 03:37:48;;;;;;;70.25;44.05;;;4.60;99.90;;;;;;5015581;23;20447;-77
2021/11/25 03:39:48;;;;;;;72.72;44.67;;;4.60;99.90;;;;;;5018665;23;20034;-77
2021/11/25 03:41:49;;;;;;;75.32;44.90;;;4.70;99.90;;;;;;5016947;23;20340;-76
2021/11/25 03:43:50;;;;;;;69.65;43.50;;;4.80;99.90;;;;;;5018636;23;20463;-77
2021/11/25 03:45:51;;;;;;;71.80;45.00;;;4.70;99.90;;;;;;5018287;23;20015;-77
2021/11/25 03:47:52;;;;;;;80.65;46.70;;;4.80;99.90;;;;;;5017208;23;20011;-77
2021/11/25 03:49:53;;;;;;;70.72;42.80;;;4.80;99.90;;;;;;5018710;23;20011;-77
2021/11/25 03:51:54;;;;;;;74.85;45.72;;;4.90;99.90;;;;;;5016733;23;20017;-76
2021/11/25 03:53:55;;;;;;;74.10;46.00;;;4.90;99.90;;;;;;5017208;23;20107;-76
2021/11/25 03:55:56;;;;;;;67.88;41.65;;;4.90;99.90;;;;;;5016620;23;20007;-78
2021/11/25 03:57:57;;;;;;;69.47;42.35;;;4.80;99.90;;;;;;5019024;23;20433;-77
2021/11/25 03:59:58;;;;;;;67.85;39.55;;;4.80;99.90;;;;;;5018659;23;20339;-76
2021/11/25 04:01:59;;;;;;;71.28;42.75;;;4.80;99.90;;;;;;5016937;23;20399;-77
2021/11/25 04:04:00;;;;;;;69.35;44.10;;;4.90;99.90;;;;;;5018613;23;20053;-78
2021/11/25 04:06:01;;;;;;;72.03;43.17;;;4.80;99.90;;;;;;5017118;23;20015;-76
2021/11/25 04:08:02;;;;;;;68.78;41.15;;;4.80;99.90;;;;;;5018051;23;20015;-78
2021/11/25 04:10:04;;;;;;;71.35;40.83;;;4.70;99.90;;;;;;5018647;23;20007;-77
2021/11/25 04:12:05;;;;;;;70.25;41.83;;;4.70;99.90;;;;;;5017398;23;20011;-77
2021/11/25 04:14:06;;;;;;;67.70;42.67;;;4.80;99.90;;;;;;5018296;23;20014;-78
2021/11/25 04:16:07;;;;;;;73.30;43.88;;;4.80;99.90;;;;;;5018604;23;20695;-77
2021/11/25 04:18:08;;;;;;;70.35;42.50;;;4.90;99.90;;;;;;5018360;23;20015;-77
2021/11/25 04:20:10;;;;;;;67.68;39.78;;;4.90;99.90;;;;;;5018257;23;20011;-77
2021/11/25 04:22:10;;;;;;;69.78;42.72;;;4.80;99.90;;;;;;5019012;23;20010;-76
2021/11/25 04:24:12;;;;;;;64.88;41.38;;;4.90;99.90;;;;;;5018112;23;20018;-78
2021/11/25 04:26:13;;;;;;;60.72;39.15;;;4.80;99.90;;;;;;5018777;23;20065;-78
2021/11/25 04:28:14;;;;;;;71.55;41.47;;;4.90;99.90;;;;;;5018461;23;20426;-77
2021/11/25 04:37:12;;;;;;;70.80;42.20;;;4.90;99.90;;;;;;4985407;23;20090;-77
2021/11/25 04:39:13;;;;;;;67.55;43.67;;;4.90;99.90;;;;;;5018692;23;20070;-76
2021/11/25 04:41:13;;;;;;;75.68;44.78;;;4.90;99.90;;;;;;5016279;23;20010;-77
2021/11/25 04:43:16;;;;;;;70.63;42.53;;;4.80;99.90;;;;;;5016732;23;20007;-77
2021/11/25 04:45:16;;;;;;;72.93;43.80;;;4.80;99.90;;;;;;5016665;23;20547;-77
2021/11/25 04:47:17;;;;;;;73.40;43.20;;;4.90;99.90;;;;;;5018491;23;20063;-79
2021/11/25 04:49:17;;;;;;;72.88;42.90;;;4.90;99.90;;;;;;5018091;23;20022;-79
2021/11/25 04:51:18;;;;;;;71.25;43.97;;;4.90;99.90;;;;;;5015820;23;20018;-80
2021/11/25 04:53:19;;;;;;;71.40;43.75;;;4.80;99.90;;;;;;5018322;23;20014;-78
2021/11/25 04:55:20;;;;;;;76.00;45.00;;;4.80;99.90;;;;;;5018140;23;20011;-79
2021/11/25 04:57:21;;;;;;;71.15;43.65;;;4.80;99.90;;;;;;5017102;23;20014;-79
2021/11/25 04:59:21;;;;;;;80.65;47.63;;;4.80;99.90;;;;;;5017912;23;20428;-79
2021/11/25 05:01:22;;;;;;;76.55;46.60;;;4.70;99.90;;;;;;5016695;23;20011;-77
2021/11/25 05:03:23;;;;;;;77.30;45.17;;;4.60;99.90;;;;;;5018095;23;20327;-80
2021/11/25 05:05:25;;;;;;;80.88;46.63;;;4.60;99.90;;;;;;5018675;23;20416;-77
2021/11/25 05:07:26;;;;;;;81.72;46.30;;;4.50;99.90;;;;;;5016595;23;20057;-78
2021/11/25 05:09:26;;;;;;;87.10;47.33;;;4.50;99.90;;;;;;5017140;23;20003;-78
2021/11/25 05:11:27;;;;;;;83.85;49.83;;;4.40;99.90;;;;;;5017443;23;20102;-77
2021/11/25 05:13:27;;;;;;;85.18;47.85;;;4.40;99.90;;;;;;5015665;23;20419;-78
2021/11/25 05:15:28;;;;;;;87.60;49.83;;;4.40;99.90;;;;;;5017078;23;20022;-80
2021/11/25 05:17:29;;;;;;;87.18;50.22;;;4.30;99.90;;;;;;5016947;23;20015;-78
2021/11/25 05:19:31;;;;;;;88.47;49.35;;;4.30;99.90;;;;;;5016864;23;20017;-79
2021/11/25 05:21:32;;;;;;;93.63;49.75;;;4.30;99.90;;;;;;5015380;23;20003;-79
2021/11/25 05:23:33;;;;;;;107.90;55.55;;;4.30;99.90;;;;;;5016625;23;20029;-79
2021/11/25 05:25:34;;;;;;;111.38;53.58;;;4.40;99.90;;;;;;5015675;23;20521;-80
2021/11/25 05:27:34;;;;;;;107.80;57.03;;;4.40;99.90;;;;;;5018023;23;20015;-79
2021/11/25 05:29:36;;;;;;;114.20;58.00;;;4.30;99.90;;;;;;5018045;23;20447;-80
2021/11/25 05:31:37;;;;;;;111.05;55.67;;;4.30;99.90;;;;;;5017814;23;20018;-77
2021/11/25 05:33:38;;;;;;;111.07;54.67;;;4.40;99.90;;;;;;5017458;23;20428;-79
2021/11/25 05:35:38;;;;;;;102.32;54.30;;;4.40;99.90;;;;;;5018689;23;20015;-78
2021/11/25 05:37:41;;;;;;;121.15;57.17;;;4.40;99.90;;;;;;5017000;23;20031;-77
2021/11/25 05:39:42;;;;;;;113.25;56.75;;;4.40;99.90;;;;;;5016174;23;20066;-78
2021/11/25 05:41:43;;;;;;;116.82;53.88;;;4.40;99.90;;;;;;5015740;23;20018;-78
2021/11/25 05:43:44;;;;;;;105.45;55.40;;;4.30;99.90;;;;;;5017491;23;20015;-79
2021/11/25 05:45:45;;;;;;;122.50;60.35;;;4.30;99.90;;;;;;5018023;23;20007;-78
2021/11/25 05:47:47;;;;;;;113.18;58.00;;;4.30;99.90;;;;;;5017672;23;20110;-79
2021/11/25 05:49:47;;;;;;;101.18;50.63;;;4.30;99.90;;;;;;5016181;23;20018;-78
2021/11/25 05:51:48;;;;;;;123.13;58.95;;;4.30;99.90;;;;;;5015664;23;20006;-78
2021/11/25 05:53:49;;;;;;;109.47;55.13;;;4.30;99.90;;;;;;5016054;23;20034;-77
2021/11/25 05:55:50;;;;;;;106.55;55.00;;;4.30;99.90;;;;;;5015493;23;20534;-79
2021/11/25 05:57:51;;;;;;;108.22;58.40;;;4.20;99.90;;;;;;5016860;23;20516;-78
2021/11/25 05:59:52;;;;;;;112.10;55.38;;;4.20;99.90;;;;;;5017991;23;20011;-78
2021/11/25 06:01:52;;;;;;;116.45;55.88;;;4.20;99.90;;;;;;5017293;23;20046;-78
2021/11/25 06:03:54;;;;;;;110.30;55.80;;;4.20;99.90;;;;;;5016701;23;20055;-79
2021/11/25 06:05:54;;;;;;;116.22;55.42;;;4.10;99.90;;;;;;5016760;23;20011;-78
2021/11/25 06:07:59;;;;;;;116.80;56.60;;;4.10;99.90;;;;;;5017668;23;20090;-77
2021/11/25 06:09:59;;;;;;;120.95;61.40;;;4.20;99.90;;;;;;5016385;23;20038;-77
2021/11/25 06:12:00;;;;;;;118.90;58.25;;;4.20;99.90;;;;;;5014790;23;20022;-78
2021/11/25 06:14:01;;;;;;;113.47;56.03;;;4.20;99.90;;;;;;5014946;23;20038;-77
2021/11/25 06:16:02;;;;;;;113.45;57.03;;;4.20;99.90;;;;;;5013691;23;20087;-77
2021/11/25 06:18:02;;;;;;;117.68;58.25;;;4.20;99.90;;;;;;5015579;23;20014;-77
2021/11/25 06:20:11;;;;;;;120.13;58.85;;;4.20;99.90;;;;;;5015044;23;20038;-78
2021/11/25 06:22:11;;;;;;;124.15;56.33;;;4.30;99.90;;;;;;5015293;23;20011;-77
2021/11/25 06:24:12;;;;;;;111.97;56.70;;;4.30;99.90;;;;;;5016510;23;20378;-77
2021/11/25 06:26:13;;;;;;;115.50;55.08;;;4.30;99.90;;;;;;5016512;23;20010;-79
2021/11/25 06:28:13;;;;;;;112.10;53.85;;;4.30;99.90;;;;;;5015532;23;20424;-78
2021/11/25 06:30:16;;;;;;;109.10;53.78;;;4.40;99.90;;;;;;5014501;23;20121;-78
2021/11/25 06:32:16;;;;;;;93.57;50.80;;;4.40;99.90;;;;;;5014684;23;20082;-77
2021/11/25 06:34:17;;;;;;;99.03;53.28;;;4.40;99.90;;;;;;5015411;23;20405;-76
2021/11/25 06:36:18;;;;;;;105.57;52.13;;;4.30;99.90;;;;;;5016276;23;20010;-77
2021/11/25 06:38:19;;;;;;;102.30;54.50;;;4.40;99.90;;;;;;5016705;23;20034;-78
2021/11/25 06:40:26;;;;;;;104.47;53.65;;;4.40;99.90;;;;;;5015921;23;20435;-78
2021/11/25 06:42:26;;;;;;;98.65;53.30;;;4.40;99.90;;;;;;5015935;23;20015;-77
2021/11/25 06:44:27;;;;;;;96.05;54.50;;;4.40;99.90;;;;;;5015966;23;20009;-78
2021/11/25 06:46:28;;;;;;;90.00;48.92;;;4.30;99.90;;;;;;5017516;23;20353;-78
2021/11/25 06:48:29;;;;;;;90.10;49.33;;;4.40;99.90;;;;;;5017532;23;20051;-77
2021/11/25 06:50:30;;;;;;;88.47;51.63;;;4.40;99.90;;;;;;5017841;23;20014;-80
2021/11/25 06:52:31;;;;;;;87.40;48.85;;;4.30;99.90;;;;;;5018088;23;20014;-77
2021/11/25 06:54:32;;;;;;;95.65;50.80;;;4.30;99.90;;;;;;5014727;23;20078;-78
2021/11/25 06:56:33;;;;;;;93.88;48.55;;;4.30;99.90;;;;;;5017725;23;20010;-77
2021/11/25 06:58:33;;;;;;;89.28;49.75;;;4.30;99.90;;;;;;5017057;23;20011;-79
2021/11/25 07:00:34;;;;;;;86.32;48.33;;;4.40;99.90;;;;;;5015808;23;20007;-78
2021/11/25 07:02:35;;;;;;;91.68;49.05;;;4.40;99.90;;;;;;5017574;23;20030;-78
2021/11/25 07:04:36;;;;;;;99.00;51.60;;;4.40;99.90;;;;;;5017263;23;20469;-78
2021/11/25 07:06:37;;;;;;;87.65;47.33;;;4.50;99.90;;;;;;5018168;23;20019;-76
2021/11/25 07:08:37;;;;;;;91.35;50.58;;;4.50;99.90;;;;;;5014805;23;20007;-78
2021/11/25 07:10:38;;;;;;;84.63;47.53;;;4.50;99.90;;;;;;5016860;23;20343;-77
2021/11/25 07:12:39;;;;;;;90.68;49.70;;;4.60;99.90;;;;;;5015343;23;20082;-78
2021/11/25 07:14:40;;;;;;;90.25;50.33;;;4.50;99.90;;;;;;5018069;23;20427;-79
2021/11/25 07:16:41;;;;;;;84.20;46.55;;;4.50;99.90;;;;;;5018002;23;20014;-77
2021/11/25 07:18:41;;;;;;;83.15;47.75;;;4.50;99.90;;;;;;5016707;23;20041;-77
2021/11/25 07:20:42;;;;;;;92.28;48.75;;;4.50;99.90;;;;;;5018434;23;20042;-79
2021/11/25 07:22:43;;;;;;;83.78;46.88;;;4.50;99.90;;;;;;5015957;23;20026;-78
2021/11/25 07:24:44;;;;;;;81.38;46.28;;;4.60;99.90;;;;;;5017994;23;20266;-78
2021/11/25 07:26:45;;;;;;;84.85;44.35;;;4.50;99.90;;;;;;5016034;23;20062;-78
2021/11/25 07:28:46;;;;;;;87.13;48.67;;;4.50;99.90;;;;;;5018950;23;20062;-78
2021/11/25 07:30:46;;;;;;;84.18;45.97;;;4.50;99.90;;;;;;5018982;23;20412;-79
2021/11/25 07:32:48;;;;;;;86.47;44.90;;;4.60;99.90;;;;;;5018690;23;20015;-78
2021/11/25 07:34:49;;;;;;;91.13;48.28;;;4.50;99.90;;;;;;5017733;23;20023;-78
2021/11/25 07:36:49;;;;;;;83.38;48.47;;;4.60;99.90;;;;;;5017425;23;20038;-78
2021/11/25 07:38:51;;;;;;;85.55;48.47;;;4.50;99.90;;;;;;5017717;23;20034;-77
2021/11/25 07:40:52;;;;;;;86.88;50.65;;;4.50;99.90;;;;;;5015934;23;20083;-78
2021/11/25 07:42:53;;;;;;;86.93;47.03;;;4.50;99.90;;;;;;5015623;23;20019;-78
2021/11/25 07:44:54;;;;;;;89.65;49.33;;;4.50;99.90;;;;;;5017334;23;20339;-78
2021/11/25 07:46:55;;;;;;;93.57;52.42;;;4.50;99.90;;;;;;5016546;23;20102;-78
2021/11/25 07:48:58;;;;;;;85.63;45.05;;;4.50;99.90;;;;;;5017848;23;20018;-77
2021/11/25 07:50:59;;;;;;;93.97;51.90;;;4.60;99.90;;;;;;5016356;23;20014;-77
2021/11/25 07:53:00;;;;;;;82.72;46.78;;;4.60;99.90;;;;;;5018228;23;20019;-77
2021/11/25 07:55:01;;;;;;;80.72;45.67;;;4.60;99.90;;;;;;5016345;23;20094;-78
2021/11/25 07:57:01;;;;;;;83.82;47.38;;;4.60;99.90;;;;;;5015874;23;20014;-76
2021/11/25 07:59:02;;;;;;;83.78;47.10;;;4.70;99.90;;;;;;5018157;23;20011;-76
2021/11/25 08:01:03;;;;;;;78.95;44.03;;;4.70;99.90;;;;;;5017755;23;20293;-77
2021/11/25 08:03:03;;;;;;;83.45;48.22;;;4.70;99.90;;;;;;5018158;23;20011;-77
2021/11/25 08:05:05;;;;;;;79.03;45.15;;;4.70;99.90;;;;;;5015928;23;20406;-77
2021/11/25 08:07:05;;;;;;;76.40;46.95;;;4.80;99.90;;;;;;5017995;23;20019;-78
2021/11/25 08:09:06;;;;;;;73.35;43.92;;;4.80;99.90;;;;;;5016830;23;20037;-77
2021/11/25 08:11:07;;;;;;;79.93;47.60;;;4.80;99.90;;;;;;5016834;23;20019;-77
2021/11/25 08:13:07;;;;;;;75.50;43.70;;;4.80;99.90;;;;;;5016886;23;20424;-77
2021/11/25 08:15:09;;;;;;;71.93;43.70;;;4.90;99.90;;;;;;5018152;23;20320;-77
2021/11/25 08:17:10;;;;;;;73.70;44.30;;;4.80;99.90;;;;;;5017888;23;20006;-77
2021/11/25 08:19:11;;;;;;;77.70;46.55;;;4.90;99.90;;;;;;5016493;23;20046;-77
2021/11/25 08:21:13;;;;;;;73.90;44.13;;;4.90;99.90;;;;;;5018152;23;20257;-77
2021/11/25 08:23:15;;;;;;;69.95;42.13;;;4.90;99.90;;;;;;5018452;23;20019;-77
2021/11/25 08:25:16;;;;;;;73.50;42.35;;;5.00;99.90;;;;;;5015597;23;20444;-77
2021/11/25 08:27:17;;;;;;;72.15;40.65;;;5.00;99.90;;;;;;5018292;23;20018;-75
2021/11/25 08:29:18;;;;;;;67.65;41.65;;;5.10;99.90;;;;;;5015934;23;20006;-77
2021/11/25 08:31:18;;;;;;;67.38;40.58;;;5.10;99.90;;;;;;5018288;23;20109;-77
2021/11/25 08:33:21;;;;;;;65.55;40.28;;;5.10;99.90;;;;;;5018825;23;20424;-77
2021/11/25 08:35:22;;;;;;;66.88;40.30;;;5.10;99.90;;;;;;5016505;23;20011;-77
2021/11/25 08:37:22;;;;;;;63.90;38.88;;;5.10;99.90;;;;;;5016444;23;20031;-77
2021/11/25 08:39:24;;;;;;;68.50;40.13;;;5.10;99.90;;;;;;5017102;23;20364;-77
2021/11/25 08:41:28;;;;;;;64.60;41.85;;;5.10;99.90;;;;;;5016114;23;20090;-77
2021/11/25 08:43:29;;;;;;;62.58;39.42;;;5.10;99.90;;;;;;5017567;23;20018;-78
2021/11/25 08:45:29;;;;;;;70.40;42.95;;;5.10;99.90;;;;;;5015053;23;20010;-77
2021/11/25 08:47:30;;;;;;;70.45;42.53;;;5.00;99.90;;;;;;5018013;23;20014;-77
2021/11/25 08:49:31;;;;;;;71.07;43.60;;;4.90;99.90;;;;;;5015848;23;20015;-78
2021/11/25 08:51:31;;;;;;;68.55;40.92;;;4.90;99.90;;;;;;5016424;23;20022;-77
2021/11/25 08:53:33;;;;;;;72.75;42.80;;;4.80;99.90;;;;;;5016163;23;20029;-77
2021/11/25 08:55:35;;;;;;;71.95;42.80;;;4.80;99.90;;;;;;5015182;23;20007;-77
2021/11/25 08:57:38;;;;;;;75.07;44.42;;;4.70;99.90;;;;;;5017093;23;20450;-78
2021/11/25 08:59:39;;;;;;;78.55;44.85;;;4.80;99.90;;;;;;5017115;23;20464;-77
2021/11/25 09:01:39;;;;;;;79.22;44.17;;;4.90;99.90;;;;;;5017760;23;20022;-77
2021/11/25 09:03:40;;;;;;;85.28;47.25;;;4.90;99.90;;;;;;5017168;23;20193;-78
2021/11/25 09:05:41;;;;;;;82.20;46.00;;;4.90;99.90;;;;;;5016875;23;20018;-78
2021/11/25 09:07:42;;;;;;;77.15;45.35;;;4.90;99.90;;;;;;5015461;23;20015;-79
2021/11/25 09:09:42;;;;;;;89.10;46.38;;;4.90;99.90;;;;;;5015034;23;20017;-78
2021/11/25 09:11:43;;;;;;;89.50;47.22;;;4.90;99.90;;;;;;5015233;23;20010;-78
2021/11/25 09:13:45;;;;;;;82.20;44.38;;;4.90;99.90;;;;;;5016193;23;20014;-76
2021/11/25 09:15:45;;;;;;;77.70;45.58;;;5.00;99.90;;;;;;5016695;23;20347;-77
2021/11/25 09:17:46;;;;;;;90.05;47.65;;;5.10;99.90;;;;;;5016865;23;20014;-78
2021/11/25 09:19:47;;;;;;;80.43;44.28;;;5.20;99.90;;;;;;5016863;23;20006;-78
2021/11/25 09:21:48;;;;;;;90.10;47.38;;;5.20;99.90;;;;;;5014927;23;20014;-79
2021/11/25 09:23:49;;;;;;;95.03;48.60;;;5.20;99.90;;;;;;5015206;23;20066;-77
2021/11/25 09:25:50;;;;;;;101.43;50.95;;;5.20;99.90;;;;;;5016776;23;20436;-78
2021/11/25 09:27:51;;;;;;;92.28;50.85;;;5.10;99.90;;;;;;5015182;23;20777;-79
2021/11/25 09:29:52;;;;;;;95.28;48.65;;;5.10;99.90;;;;;;5016980;23;20014;-79
2021/11/25 09:31:52;;;;;;;103.82;51.15;;;5.10;99.90;;;;;;5017091;23;20094;-77
2021/11/25 09:33:53;;;;;;;95.22;49.95;;;5.20;99.90;;;;;;5017563;23;20106;-79
2021/11/25 09:35:54;;;;;;;102.40;48.88;;;5.20;99.90;;;;;;5014333;23;20010;-78
2021/11/25 09:37:55;;;;;;;96.43;48.08;;;5.40;99.90;;;;;;5015711;23;20756;-78
2021/11/25 09:39:56;;;;;;;95.75;50.90;;;5.50;99.90;;;;;;5018112;23;20011;-79
2021/11/25 09:41:57;;;;;;;96.50;49.40;;;5.50;99.90;;;;;;5017546;23;20082;-79
2021/11/25 09:43:58;;;;;;;96.28;50.92;;;5.60;99.90;;;;;;5016008;23;20014;-79
2021/11/25 09:45:58;;;;;;;92.07;48.60;;;5.60;99.90;;;;;;5014955;23;20369;-78
2021/11/25 09:48:03;;;;;;;88.88;45.92;;;5.70;99.90;;;;;;5016292;23;20031;-78
2021/11/25 09:50:04;;;;;;;89.70;50.28;;;5.90;99.90;;;;;;5017581;23;20058;-78
2021/11/25 09:52:05;;;;;;;95.05;49.67;;;5.80;99.90;;;;;;5017792;23;20010;-78
2021/11/25 09:54:05;;;;;;;87.75;45.85;;;5.70;99.90;;;;;;5018126;23;20451;-77
2021/11/25 09:56:07;;;;;;;100.90;50.30;;;5.70;99.90;;;;;;5015688;23;20097;-78
2021/11/25 09:58:12;;;;;;;87.97;49.00;;;5.70;99.90;;;;;;5017970;23;20348;-78
2021/11/25 10:00:14;;;;;;;87.88;49.38;;;5.80;99.90;;;;;;5015464;23;20313;-78
2021/11/25 10:02:14;;;;;;;87.03;46.38;;;5.80;99.90;;;;;;5017145;23;20011;-78
2021/11/25 10:04:15;;;;;;;87.53;47.78;;;5.70;99.90;;;;;;5017930;23;20450;-78
2021/11/25 10:06:26;;;;;;;88.45;47.90;;;5.70;99.90;;;;;;5017624;23;20057;-77
2021/11/25 10:08:32;;;;;;;97.03;50.38;;;5.80;99.90;;;;;;5016627;23;20011;-79
2021/11/25 10:10:34;;;;;;;90.85;49.42;;;5.90;99.90;;;;;;5015879;23;20054;-74
2021/11/25 10:12:38;;;;;;;91.30;47.42;;;6.00;99.90;;;;;;5017856;23;20003;-76
2021/11/25 10:14:39;;;;;;;82.80;49.55;;;6.00;99.90;;;;;;5017979;23;20007;-77
2021/11/25 10:16:43;;;;;;;94.15;51.42;;;6.10;99.90;;;;;;5017631;23;20053;-74
2021/11/25 10:18:45;;;;;;;88.82;51.25;;;6.20;99.90;;;;;;5018072;23;20082;-76
2021/11/25 10:20:48;;;;;;;92.45;49.60;;;6.30;99.90;;;;;;5014662;23;20011;-74
2021/11/25 10:23:01;;;;;;;84.93;48.03;;;6.30;99.90;;;;;;5016809;23;20007;-76
2021/11/25 10:25:02;;;;;;;84.37;44.67;;;6.30;99.90;;;;;;5016194;23;20011;-76
2021/11/25 10:27:27;;;;;;;86.88;48.72;;;6.30;99.90;;;;;;5016101;23;20301;-75